sensor_id;sensor_type;location;lat;lon;timestamp;P1;durP1;ratioP1;P2;durP2;ratioP2
27365;SDS011;14837;57.148;-2.144;2023-04-24T03:40:25;11.68;;;3.30;;
27365;SDS011;14837;57.148;-2.144;2023-04-24T03:42:51;13.85;;;4.80;;
27365;SDS011;14837;57.148;-2.144;2023-04-24T03:45:18;11.60;;;3.90;;
27365;SDS011;14837;57.148;-2.144;2023-04-24T03:47:45;17.00;;;4.07;;
27365;SDS011;14837;57.148;-2.144;2023-04-24T03:50:11;20.45;;;3.92;;
27365;SDS011;14837;57.148;-2.144;2023-04-24T03:52:38;20.60;;;5.25;;
27365;SDS011;14837;57.148;-2.144;2023-04-24T03:55:05;14.52;;;5.15;;
27365;SDS011;14837;57.148;-2.144;2023-04-24T03:57:32;22.75;;;4.88;;
27365;SDS011;14837;57.148;-2.144;2023-04-24T03:59:59;13.80;;;3.67;;
27365;SDS011;14837;57.148;-2.144;2023-04-24T04:02:26;13.88;;;3.88;;
27365;SDS011;14837;57.148;-2.144;2023-04-24T04:04:52;14.68;;;3.50;;
27365;SDS011;14837;57.148;-2.144;2023-04-24T04:07:19;11.30;;;3.72;;
27365;SDS011;14837;57.148;-2.144;2023-04-24T04:09:46;17.08;;;4.38;;
27365;SDS011;14837;57.148;-2.144;2023-04-24T04:12:12;10.73;;;2.17;;
27365;SDS011;14837;57.148;-2.144;2023-04-24T04:14:39;6.38;;;3.03;;
27365;SDS011;14837;57.148;-2.144;2023-04-24T04:17:06;21.92;;;5.93;;
27365;SDS011;14837;57.148;-2.144;2023-04-24T04:19:32;11.63;;;3.85;;
27365;SDS011;14837;57.148;-2.144;2023-04-24T04:21:59;19.95;;;3.08;;
27365;SDS011;14837;57.148;-2.144;2023-04-24T04:24:25;8.05;;;2.60;;
27365;SDS011;14837;57.148;-2.144;2023-04-24T04:26:52;8.15;;;3.17;;
27365;SDS011;14837;57.148;-2.144;2023-04-24T04:29:22;14.23;;;3.40;;
27365;SDS011;14837;57.148;-2.144;2023-04-24T04:31:50;12.35;;;2.40;;
27365;SDS011;14837;57.148;-2.144;2023-04-24T04:34:17;14.07;;;3.60;;
27365;SDS011;14837;57.148;-2.144;2023-04-24T04:36:44;10.23;;;2.72;;
27365;SDS011;14837;57.148;-2.144;2023-04-24T04:39:12;7.50;;;3.03;;
27365;SDS011;14837;57.148;-2.144;2023-04-24T04:41:40;8.13;;;2.83;;
27365;SDS011;14837;57.148;-2.144;2023-04-24T04:44:07;9.15;;;2.00;;
27365;SDS011;14837;57.148;-2.144;2023-04-24T04:46:35;5.95;;;2.17;;
27365;SDS011;14837;57.148;-2.144;2023-04-24T04:49:03;8.00;;;2.15;;
27365;SDS011;14837;57.148;-2.144;2023-04-24T04:51:30;6.90;;;2.83;;
27365;SDS011;14837;57.148;-2.144;2023-04-24T04:53:57;7.30;;;2.53;;
27365;SDS011;14837;57.148;-2.144;2023-04-24T04:56:23;6.65;;;2.65;;
27365;SDS011;14837;57.148;-2.144;2023-04-24T04:58:50;7.53;;;2.83;;
27365;SDS011;14837;57.148;-2.144;2023-04-24T05:01:16;7.65;;;1.98;;
27365;SDS011;14837;57.148;-2.144;2023-04-24T05:03:43;9.98;;;3.28;;
27365;SDS011;14837;57.148;-2.144;2023-04-24T05:06:10;12.45;;;3.30;;
27365;SDS011;14837;57.148;-2.144;2023-04-24T05:08:37;3.47;;;1.92;;
27365;SDS011;14837;57.148;-2.144;2023-04-24T05:11:03;3.92;;;1.67;;
27365;SDS011;14837;57.148;-2.144;2023-04-24T05:13:30;5.22;;;2.08;;
27365;SDS011;14837;57.148;-2.144;2023-04-24T05:16:05;8.23;;;2.63;;
27365;SDS011;14837;57.148;-2.144;2023-04-24T05:18:32;5.15;;;2.60;;
27365;SDS011;14837;57.148;-2.144;2023-04-24T05:20:59;8.60;;;3.00;;
27365;SDS011;14837;57.148;-2.144;2023-04-24T05:23:26;11.35;;;3.05;;
27365;SDS011;14837;57.148;-2.144;2023-04-24T05:25:52;8.60;;;3.38;;
27365;SDS011;14837;57.148;-2.144;2023-04-24T05:28:19;13.93;;;3.15;;
27365;SDS011;14837;57.148;-2.144;2023-04-24T05:30:46;8.43;;;2.85;;
27365;SDS011;14837;57.148;-2.144;2023-04-24T05:33:13;10.80;;;3.20;;
27365;SDS011;14837;57.148;-2.144;2023-04-24T05:35:40;11.45;;;3.17;;
27365;SDS011;14837;57.148;-2.144;2023-04-24T05:38:12;7.07;;;2.90;;
27365;SDS011;14837;57.148;-2.144;2023-04-24T05:40:39;13.93;;;3.47;;
27365;SDS011;14837;57.148;-2.144;2023-04-24T05:43:05;13.48;;;3.20;;
27365;SDS011;14837;57.148;-2.144;2023-04-24T05:45:32;19.75;;;3.42;;
27365;SDS011;14837;57.148;-2.144;2023-04-24T05:47:58;9.70;;;3.65;;
27365;SDS011;14837;57.148;-2.144;2023-04-24T05:50:25;17.73;;;5.03;;
27365;SDS011;14837;57.148;-2.144;2023-04-24T05:52:52;14.27;;;3.45;;
27365;SDS011;14837;57.148;-2.144;2023-04-24T05:55:18;10.30;;;3.83;;
27365;SDS011;14837;57.148;-2.144;2023-04-24T05:57:45;9.15;;;3.75;;
27365;SDS011;14837;57.148;-2.144;2023-04-24T06:00:12;14.30;;;4.10;;
27365;SDS011;14837;57.148;-2.144;2023-04-24T06:02:39;9.70;;;3.38;;
27365;SDS011;14837;57.148;-2.144;2023-04-24T06:05:06;16.02;;;4.68;;
27365;SDS011;14837;57.148;-2.144;2023-04-24T06:07:32;8.20;;;3.42;;
27365;SDS011;14837;57.148;-2.144;2023-04-24T06:09:59;12.70;;;2.53;;
27365;SDS011;14837;57.148;-2.144;2023-04-24T06:12:25;7.68;;;2.55;;
27365;SDS011;14837;57.148;-2.144;2023-04-24T06:14:52;6.50;;;2.50;;
27365;SDS011;14837;57.148;-2.144;2023-04-24T06:17:20;8.63;;;3.05;;
27365;SDS011;14837;57.148;-2.144;2023-04-24T06:19:47;12.82;;;2.38;;
27365;SDS011;14837;57.148;-2.144;2023-04-24T06:22:13;8.55;;;3.40;;
27365;SDS011;14837;57.148;-2.144;2023-04-24T06:24:40;12.60;;;3.78;;
27365;SDS011;14837;57.148;-2.144;2023-04-24T06:27:07;10.77;;;3.38;;
27365;SDS011;14837;57.148;-2.144;2023-04-24T06:29:35;8.45;;;2.88;;
27365;SDS011;14837;57.148;-2.144;2023-04-24T06:32:01;12.43;;;3.55;;
27365;SDS011;14837;57.148;-2.144;2023-04-24T06:34:28;9.32;;;2.75;;
27365;SDS011;14837;57.148;-2.144;2023-04-24T06:36:57;9.82;;;3.28;;
27365;SDS011;14837;57.148;-2.144;2023-04-24T06:39:23;9.57;;;2.83;;
27365;SDS011;14837;57.148;-2.144;2023-04-24T06:41:50;9.45;;;3.05;;
27365;SDS011;14837;57.148;-2.144;2023-04-24T06:44:16;15.40;;;4.65;;
27365;SDS011;14837;57.148;-2.144;2023-04-24T06:46:43;7.93;;;2.75;;
27365;SDS011;14837;57.148;-2.144;2023-04-24T06:49:09;10.45;;;3.38;;
27365;SDS011;14837;57.148;-2.144;2023-04-24T06:51:36;12.82;;;3.58;;
27365;SDS011;14837;57.148;-2.144;2023-04-24T06:54:02;11.55;;;3.30;;
27365;SDS011;14837;57.148;-2.144;2023-04-24T06:56:29;6.43;;;2.88;;
27365;SDS011;14837;57.148;-2.144;2023-04-24T06:58:56;12.00;;;3.17;;
27365;SDS011;14837;57.148;-2.144;2023-04-24T07:01:22;7.45;;;2.90;;
27365;SDS011;14837;57.148;-2.144;2023-04-24T07:03:49;12.93;;;3.58;;
27365;SDS011;14837;57.148;-2.144;2023-04-24T07:06:16;6.43;;;3.45;;
27365;SDS011;14837;57.148;-2.144;2023-04-24T07:08:44;13.90;;;3.58;;
27365;SDS011;14837;57.148;-2.144;2023-04-24T07:11:11;5.90;;;2.00;;
27365;SDS011;14837;57.148;-2.144;2023-04-24T07:13:38;9.40;;;3.20;;
27365;SDS011;14837;57.148;-2.144;2023-04-24T07:16:08;9.02;;;2.95;;
27365;SDS011;14837;57.148;-2.144;2023-04-24T07:18:35;11.02;;;3.17;;
27365;SDS011;14837;57.148;-2.144;2023-04-24T07:21:02;15.52;;;4.05;;
27365;SDS011;14837;57.148;-2.144;2023-04-24T07:23:29;8.68;;;3.92;;
27365;SDS011;14837;57.148;-2.144;2023-04-24T07:25:56;11.65;;;3.00;;
27365;SDS011;14837;57.148;-2.144;2023-04-24T07:28:23;20.05;;;4.47;;
27365;SDS011;14837;57.148;-2.144;2023-04-24T07:30:50;13.88;;;3.80;;
27365;SDS011;14837;57.148;-2.144;2023-04-24T07:33:20;15.70;;;3.63;;
27365;SDS011;14837;57.148;-2.144;2023-04-24T07:35:47;11.05;;;3.42;;
27365;SDS011;14837;57.148;-2.144;2023-04-24T07:38:13;13.38;;;4.07;;
27365;SDS011;14837;57.148;-2.144;2023-04-24T07:40:40;12.05;;;3.45;;
27365;SDS011;14837;57.148;-2.144;2023-04-24T07:43:07;16.67;;;5.25;;
27365;SDS011;14837;57.148;-2.144;2023-04-24T07:45:33;12.82;;;4.97;;
27365;SDS011;14837;57.148;-2.144;2023-04-24T07:48:03;13.65;;;4.28;;
27365;SDS011;14837;57.148;-2.144;2023-04-24T07:50:30;15.52;;;4.10;;
27365;SDS011;14837;57.148;-2.144;2023-04-24T07:52:56;12.25;;;3.53;;
27365;SDS011;14837;57.148;-2.144;2023-04-24T07:55:23;16.80;;;3.63;;
27365;SDS011;14837;57.148;-2.144;2023-04-24T07:57:53;10.55;;;3.00;;
27365;SDS011;14837;57.148;-2.144;2023-04-24T08:00:20;18.35;;;4.82;;
27365;SDS011;14837;57.148;-2.144;2023-04-24T08:02:47;12.38;;;4.85;;
27365;SDS011;14837;57.148;-2.144;2023-04-24T08:05:14;15.45;;;3.90;;
27365;SDS011;14837;57.148;-2.144;2023-04-24T08:07:41;18.80;;;4.40;;
27365;SDS011;14837;57.148;-2.144;2023-04-24T08:10:12;14.43;;;3.50;;
27365;SDS011;14837;57.148;-2.144;2023-04-24T08:12:38;11.88;;;3.40;;
27365;SDS011;14837;57.148;-2.144;2023-04-24T08:15:05;12.75;;;3.30;;
27365;SDS011;14837;57.148;-2.144;2023-04-24T08:17:33;17.15;;;4.38;;
27365;SDS011;14837;57.148;-2.144;2023-04-24T08:19:59;8.88;;;2.90;;
27365;SDS011;14837;57.148;-2.144;2023-04-24T08:22:28;11.73;;;3.22;;
27365;SDS011;14837;57.148;-2.144;2023-04-24T08:24:54;15.43;;;2.78;;
27365;SDS011;14837;57.148;-2.144;2023-04-24T08:27:23;4.93;;;2.15;;
27365;SDS011;14837;57.148;-2.144;2023-04-24T08:29:50;13.18;;;2.47;;
27365;SDS011;14837;57.148;-2.144;2023-04-24T08:32:16;9.07;;;2.70;;
27365;SDS011;14837;57.148;-2.144;2023-04-24T08:34:43;18.58;;;4.18;;
27365;SDS011;14837;57.148;-2.144;2023-04-24T08:37:09;7.32;;;2.53;;
27365;SDS011;14837;57.148;-2.144;2023-04-24T08:39:36;7.13;;;2.53;;
27365;SDS011;14837;57.148;-2.144;2023-04-24T08:42:04;10.18;;;2.55;;
27365;SDS011;14837;57.148;-2.144;2023-04-24T08:44:34;12.02;;;2.75;;
27365;SDS011;14837;57.148;-2.144;2023-04-24T08:47:02;10.73;;;2.97;;
27365;SDS011;14837;57.148;-2.144;2023-04-24T08:49:28;5.60;;;2.38;;
27365;SDS011;14837;57.148;-2.144;2023-04-24T08:51:55;5.68;;;1.50;;
27365;SDS011;14837;57.148;-2.144;2023-04-24T08:54:22;4.43;;;2.10;;
27365;SDS011;14837;57.148;-2.144;2023-04-24T08:56:49;3.38;;;1.45;;
27365;SDS011;14837;57.148;-2.144;2023-04-24T08:59:16;8.05;;;3.38;;
27365;SDS011;14837;57.148;-2.144;2023-04-24T09:01:44;9.40;;;2.08;;
27365;SDS011;14837;57.148;-2.144;2023-04-24T09:04:11;9.80;;;2.83;;
27365;SDS011;14837;57.148;-2.144;2023-04-24T09:06:41;12.57;;;3.28;;
27365;SDS011;14837;57.148;-2.144;2023-04-24T09:09:08;10.07;;;2.38;;
27365;SDS011;14837;57.148;-2.144;2023-04-24T09:11:37;8.85;;;2.30;;
27365;SDS011;14837;57.148;-2.144;2023-04-24T09:14:04;8.05;;;2.15;;
27365;SDS011;14837;57.148;-2.144;2023-04-24T09:16:31;8.85;;;2.00;;
27365;SDS011;14837;57.148;-2.144;2023-04-24T09:19:02;6.05;;;2.00;;
27365;SDS011;14837;57.148;-2.144;2023-04-24T09:21:33;8.23;;;1.88;;
27365;SDS011;14837;57.148;-2.144;2023-04-24T09:24:00;12.18;;;3.63;;
27365;SDS011;14837;57.148;-2.144;2023-04-24T09:26:29;9.20;;;2.60;;
27365;SDS011;14837;57.148;-2.144;2023-04-24T09:28:57;11.15;;;3.08;;
27365;SDS011;14837;57.148;-2.144;2023-04-24T09:31:26;11.45;;;3.30;;
27365;SDS011;14837;57.148;-2.144;2023-04-24T09:34:02;13.40;;;3.33;;
27365;SDS011;14837;57.148;-2.144;2023-04-24T09:36:34;8.15;;;2.22;;
27365;SDS011;14837;57.148;-2.144;2023-04-24T09:39:07;9.60;;;2.03;;
27365;SDS011;14837;57.148;-2.144;2023-04-24T09:41:55;14.73;;;3.70;;
27365;SDS011;14837;57.148;-2.144;2023-04-24T09:44:26;12.10;;;3.22;;
27365;SDS011;14837;57.148;-2.144;2023-04-24T09:46:54;13.45;;;2.92;;
27365;SDS011;14837;57.148;-2.144;2023-04-24T09:49:24;12.80;;;3.50;;
27365;SDS011;14837;57.148;-2.144;2023-04-24T09:51:51;6.47;;;2.47;;
27365;SDS011;14837;57.148;-2.144;2023-04-24T09:54:19;14.32;;;2.85;;
27365;SDS011;14837;57.148;-2.144;2023-04-24T09:56:48;4.45;;;2.33;;
27365;SDS011;14837;57.148;-2.144;2023-04-24T09:59:16;9.25;;;2.38;;
27365;SDS011;14837;57.148;-2.144;2023-04-24T10:01:43;8.80;;;2.88;;
27365;SDS011;14837;57.148;-2.144;2023-04-24T10:04:32;8.80;;;3.00;;
27365;SDS011;14837;57.148;-2.144;2023-04-24T10:06:58;14.38;;;3.97;;
27365;SDS011;14837;57.148;-2.144;2023-04-24T10:09:26;10.32;;;2.83;;
27365;SDS011;14837;57.148;-2.144;2023-04-24T10:11:53;5.68;;;2.28;;
27365;SDS011;14837;57.148;-2.144;2023-04-24T10:14:21;10.13;;;2.50;;
27365;SDS011;14837;57.148;-2.144;2023-04-24T10:16:48;14.25;;;5.53;;
27365;SDS011;14837;57.148;-2.144;2023-04-24T10:19:15;12.20;;;5.28;;
27365;SDS011;14837;57.148;-2.144;2023-04-24T10:21:42;12.15;;;3.65;;
27365;SDS011;14837;57.148;-2.144;2023-04-24T10:24:13;9.32;;;3.67;;
27365;SDS011;14837;57.148;-2.144;2023-04-24T10:26:40;7.82;;;2.35;;
27365;SDS011;14837;57.148;-2.144;2023-04-24T10:29:06;11.68;;;4.10;;
27365;SDS011;14837;57.148;-2.144;2023-04-24T10:31:38;5.78;;;2.42;;
27365;SDS011;14837;57.148;-2.144;2023-04-24T10:34:05;7.85;;;3.13;;
27365;SDS011;14837;57.148;-2.144;2023-04-24T10:36:32;6.43;;;3.55;;
27365;SDS011;14837;57.148;-2.144;2023-04-24T10:39:01;9.32;;;2.85;;
27365;SDS011;14837;57.148;-2.144;2023-04-24T10:41:29;4.28;;;2.58;;
27365;SDS011;14837;57.148;-2.144;2023-04-24T10:44:06;5.20;;;1.63;;
27365;SDS011;14837;57.148;-2.144;2023-04-24T10:46:43;1.38;;;0.95;;
27365;SDS011;14837;57.148;-2.144;2023-04-24T10:49:09;3.92;;;2.25;;
27365;SDS011;14837;57.148;-2.144;2023-04-24T10:51:49;3.80;;;1.33;;
27365;SDS011;14837;57.148;-2.144;2023-04-24T10:54:35;5.30;;;1.52;;
27365;SDS011;14837;57.148;-2.144;2023-04-24T10:59:50;6.40;;;1.73;;
27365;SDS011;14837;57.148;-2.144;2023-04-24T11:02:17;7.60;;;2.03;;
27365;SDS011;14837;57.148;-2.144;2023-04-24T11:04:44;4.80;;;1.65;;
27365;SDS011;14837;57.148;-2.144;2023-04-24T11:07:11;7.25;;;1.60;;
27365;SDS011;14837;57.148;-2.144;2023-04-24T11:09:38;4.70;;;1.50;;
27365;SDS011;14837;57.148;-2.144;2023-04-24T11:12:10;4.47;;;1.77;;
27365;SDS011;14837;57.148;-2.144;2023-04-24T11:17:36;8.35;;;3.22;;
27365;SDS011;14837;57.148;-2.144;2023-04-24T11:20:07;4.07;;;2.00;;
27365;SDS011;14837;57.148;-2.144;2023-04-24T11:22:53;3.88;;;1.60;;
27365;SDS011;14837;57.148;-2.144;2023-04-24T11:25:21;3.88;;;1.35;;
27365;SDS011;14837;57.148;-2.144;2023-04-24T11:27:49;9.43;;;1.67;;
27365;SDS011;14837;57.148;-2.144;2023-04-24T11:30:19;4.10;;;1.35;;
27365;SDS011;14837;57.148;-2.144;2023-04-24T11:32:47;5.57;;;2.05;;
27365;SDS011;14837;57.148;-2.144;2023-04-24T11:37:42;5.03;;;1.88;;
27365;SDS011;14837;57.148;-2.144;2023-04-24T11:40:13;8.52;;;1.98;;
27365;SDS011;14837;57.148;-2.144;2023-04-24T11:42:45;11.85;;;2.00;;
27365;SDS011;14837;57.148;-2.144;2023-04-24T11:45:13;3.53;;;1.55;;
27365;SDS011;14837;57.148;-2.144;2023-04-24T11:47:41;5.70;;;1.08;;
27365;SDS011;14837;57.148;-2.144;2023-04-24T11:50:09;6.30;;;1.80;;
27365;SDS011;14837;57.148;-2.144;2023-04-24T11:52:43;9.30;;;1.52;;
27365;SDS011;14837;57.148;-2.144;2023-04-24T11:55:31;5.10;;;1.13;;
27365;SDS011;14837;57.148;-2.144;2023-04-24T11:57:57;3.97;;;1.20;;
27365;SDS011;14837;57.148;-2.144;2023-04-24T12:00:25;5.30;;;1.48;;
27365;SDS011;14837;57.148;-2.144;2023-04-24T12:02:52;3.92;;;1.35;;
27365;SDS011;14837;57.148;-2.144;2023-04-24T12:05:29;1.00;;;0.68;;
27365;SDS011;14837;57.148;-2.144;2023-04-24T12:07:57;7.78;;;1.60;;
27365;SDS011;14837;57.148;-2.144;2023-04-24T12:10:24;5.45;;;1.65;;
27365;SDS011;14837;57.148;-2.144;2023-04-24T12:12:51;4.18;;;1.50;;
27365;SDS011;14837;57.148;-2.144;2023-04-24T12:15:19;5.72;;;1.02;;
27365;SDS011;14837;57.148;-2.144;2023-04-24T12:17:46;5.90;;;1.95;;
27365;SDS011;14837;57.148;-2.144;2023-04-24T12:20:13;4.07;;;1.70;;
27365;SDS011;14837;57.148;-2.144;2023-04-24T12:22:46;7.78;;;2.35;;
27365;SDS011;14837;57.148;-2.144;2023-04-24T12:25:13;4.65;;;2.10;;
27365;SDS011;14837;57.148;-2.144;2023-04-24T12:27:41;12.25;;;2.15;;
27365;SDS011;14837;57.148;-2.144;2023-04-24T12:30:10;5.38;;;1.70;;
27365;SDS011;14837;57.148;-2.144;2023-04-24T12:32:40;6.97;;;2.38;;
27365;SDS011;14837;57.148;-2.144;2023-04-24T12:35:07;5.13;;;2.45;;
27365;SDS011;14837;57.148;-2.144;2023-04-24T12:37:34;6.15;;;2.33;;
27365;SDS011;14837;57.148;-2.144;2023-04-24T12:40:06;4.95;;;2.47;;
27365;SDS011;14837;57.148;-2.144;2023-04-24T12:42:34;7.53;;;2.85;;
27365;SDS011;14837;57.148;-2.144;2023-04-24T12:45:04;11.65;;;3.88;;
27365;SDS011;14837;57.148;-2.144;2023-04-24T12:47:32;7.63;;;3.22;;
27365;SDS011;14837;57.148;-2.144;2023-04-24T12:49:59;11.57;;;1.85;;
27365;SDS011;14837;57.148;-2.144;2023-04-24T12:52:26;5.97;;;2.65;;
27365;SDS011;14837;57.148;-2.144;2023-04-24T12:54:54;10.73;;;3.28;;
27365;SDS011;14837;57.148;-2.144;2023-04-24T12:57:23;13.35;;;3.65;;
27365;SDS011;14837;57.148;-2.144;2023-04-24T12:59:49;8.88;;;2.80;;
27365;SDS011;14837;57.148;-2.144;2023-04-24T13:02:16;5.63;;;1.95;;
27365;SDS011;14837;57.148;-2.144;2023-04-24T13:04:46;10.48;;;2.58;;
27365;SDS011;14837;57.148;-2.144;2023-04-24T13:07:13;5.53;;;2.45;;
27365;SDS011;14837;57.148;-2.144;2023-04-24T13:09:41;10.10;;;1.30;;
27365;SDS011;14837;57.148;-2.144;2023-04-24T13:12:08;3.22;;;1.23;;
27365;SDS011;14837;57.148;-2.144;2023-04-24T13:14:35;5.35;;;1.80;;
27365;SDS011;14837;57.148;-2.144;2023-04-24T13:17:01;7.57;;;2.08;;
27365;SDS011;14837;57.148;-2.144;2023-04-24T13:19:29;6.68;;;1.42;;
27365;SDS011;14837;57.148;-2.144;2023-04-24T13:21:56;3.97;;;1.92;;
27365;SDS011;14837;57.148;-2.144;2023-04-24T13:24:23;4.70;;;1.05;;
27365;SDS011;14837;57.148;-2.144;2023-04-24T13:26:53;7.25;;;1.92;;
27365;SDS011;14837;57.148;-2.144;2023-04-24T13:29:19;5.47;;;2.20;;
27365;SDS011;14837;57.148;-2.144;2023-04-24T13:31:46;5.10;;;2.17;;
27365;SDS011;14837;57.148;-2.144;2023-04-24T13:34:13;3.13;;;1.52;;
27365;SDS011;14837;57.148;-2.144;2023-04-24T13:36:39;4.50;;;1.20;;
27365;SDS011;14837;57.148;-2.144;2023-04-24T13:39:06;3.08;;;1.20;;
27365;SDS011;14837;57.148;-2.144;2023-04-24T13:41:33;3.47;;;1.17;;
27365;SDS011;14837;57.148;-2.144;2023-04-24T13:43:59;6.35;;;1.27;;
27365;SDS011;14837;57.148;-2.144;2023-04-24T13:46:26;8.02;;;1.33;;
27365;SDS011;14837;57.148;-2.144;2023-04-24T13:48:53;5.68;;;1.52;;
27365;SDS011;14837;57.148;-2.144;2023-04-24T13:51:19;3.70;;;1.10;;
27365;SDS011;14837;57.148;-2.144;2023-04-24T13:53:46;8.85;;;1.60;;
27365;SDS011;14837;57.148;-2.144;2023-04-24T13:56:12;4.85;;;1.63;;
27365;SDS011;14837;57.148;-2.144;2023-04-24T13:58:40;2.15;;;1.10;;
27365;SDS011;14837;57.148;-2.144;2023-04-24T14:01:06;6.50;;;1.60;;
27365;SDS011;14837;57.148;-2.144;2023-04-24T14:03:33;6.03;;;1.15;;
27365;SDS011;14837;57.148;-2.144;2023-04-24T14:06:00;3.47;;;1.60;;
27365;SDS011;14837;57.148;-2.144;2023-04-24T14:08:26;6.43;;;3.15;;
27365;SDS011;14837;57.148;-2.144;2023-04-24T14:10:53;3.75;;;0.85;;
27365;SDS011;14837;57.148;-2.144;2023-04-24T14:13:19;5.43;;;1.23;;
27365;SDS011;14837;57.148;-2.144;2023-04-24T14:15:46;5.25;;;2.03;;
27365;SDS011;14837;57.148;-2.144;2023-04-24T14:18:13;7.10;;;1.60;;
27365;SDS011;14837;57.148;-2.144;2023-04-24T14:20:40;6.22;;;1.25;;
27365;SDS011;14837;57.148;-2.144;2023-04-24T14:23:06;6.43;;;1.23;;
27365;SDS011;14837;57.148;-2.144;2023-04-24T14:25:33;2.83;;;1.08;;
27365;SDS011;14837;57.148;-2.144;2023-04-24T14:28:00;6.38;;;2.90;;
27365;SDS011;14837;57.148;-2.144;2023-04-24T14:30:26;4.50;;;2.05;;
27365;SDS011;14837;57.148;-2.144;2023-04-24T14:32:53;7.80;;;2.70;;
27365;SDS011;14837;57.148;-2.144;2023-04-24T14:35:19;5.75;;;1.55;;
27365;SDS011;14837;57.148;-2.144;2023-04-24T14:37:46;5.65;;;1.70;;
27365;SDS011;14837;57.148;-2.144;2023-04-24T14:40:14;3.10;;;1.30;;
27365;SDS011;14837;57.148;-2.144;2023-04-24T14:42:46;4.75;;;1.10;;
27365;SDS011;14837;57.148;-2.144;2023-04-24T14:45:12;8.32;;;1.40;;
27365;SDS011;14837;57.148;-2.144;2023-04-24T14:47:39;7.35;;;1.92;;
27365;SDS011;14837;57.148;-2.144;2023-04-24T14:50:06;5.57;;;1.60;;
27365;SDS011;14837;57.148;-2.144;2023-04-24T14:52:35;3.53;;;1.20;;
27365;SDS011;14837;57.148;-2.144;2023-04-24T14:55:02;2.17;;;1.20;;
27365;SDS011;14837;57.148;-2.144;2023-04-24T14:57:28;3.53;;;1.60;;
27365;SDS011;14837;57.148;-2.144;2023-04-24T14:59:55;2.70;;;1.40;;
27365;SDS011;14837;57.148;-2.144;2023-04-24T15:02:21;5.05;;;1.60;;
27365;SDS011;14837;57.148;-2.144;2023-04-24T15:04:48;5.20;;;1.48;;
27365;SDS011;14837;57.148;-2.144;2023-04-24T15:07:15;2.55;;;1.58;;
27365;SDS011;14837;57.148;-2.144;2023-04-24T15:09:41;5.88;;;1.40;;
27365;SDS011;14837;57.148;-2.144;2023-04-24T15:12:09;8.50;;;1.15;;
27365;SDS011;14837;57.148;-2.144;2023-04-24T15:14:36;4.63;;;1.20;;
27365;SDS011;14837;57.148;-2.144;2023-04-24T15:17:02;5.43;;;1.20;;
27365;SDS011;14837;57.148;-2.144;2023-04-24T15:19:29;5.43;;;1.25;;
27365;SDS011;14837;57.148;-2.144;2023-04-24T15:21:56;1.98;;;0.70;;
27365;SDS011;14837;57.148;-2.144;2023-04-24T15:24:22;2.05;;;0.95;;
27365;SDS011;14837;57.148;-2.144;2023-04-24T15:26:49;2.85;;;1.00;;
27365;SDS011;14837;57.148;-2.144;2023-04-24T15:29:16;5.60;;;1.85;;
27365;SDS011;14837;57.148;-2.144;2023-04-24T15:31:42;4.57;;;1.38;;
27365;SDS011;14837;57.148;-2.144;2023-04-24T15:34:09;3.92;;;2.08;;
27365;SDS011;14837;57.148;-2.144;2023-04-24T15:36:35;11.15;;;3.58;;
27365;SDS011;14837;57.148;-2.144;2023-04-24T15:39:02;5.47;;;2.53;;
27365;SDS011;14837;57.148;-2.144;2023-04-24T15:41:31;9.25;;;2.15;;
27365;SDS011;14837;57.148;-2.144;2023-04-24T15:43:58;6.65;;;2.40;;
27365;SDS011;14837;57.148;-2.144;2023-04-24T15:46:24;6.85;;;3.80;;
27365;SDS011;14837;57.148;-2.144;2023-04-24T15:48:51;10.05;;;3.88;;
27365;SDS011;14837;57.148;-2.144;2023-04-24T15:51:17;8.00;;;3.03;;
27365;SDS011;14837;57.148;-2.144;2023-04-24T15:53:44;3.15;;;1.10;;
27365;SDS011;14837;57.148;-2.144;2023-04-24T15:56:12;3.92;;;1.10;;
27365;SDS011;14837;57.148;-2.144;2023-04-24T15:58:39;5.68;;;1.35;;
27365;SDS011;14837;57.148;-2.144;2023-04-24T16:01:05;4.25;;;1.50;;
27365;SDS011;14837;57.148;-2.144;2023-04-24T16:03:32;4.45;;;1.42;;
27365;SDS011;14837;57.148;-2.144;2023-04-24T16:05:59;5.60;;;1.25;;
27365;SDS011;14837;57.148;-2.144;2023-04-24T16:08:26;6.90;;;1.63;;
27365;SDS011;14837;57.148;-2.144;2023-04-24T16:10:52;6.72;;;1.33;;
27365;SDS011;14837;57.148;-2.144;2023-04-24T16:13:19;4.07;;;1.60;;
27365;SDS011;14837;57.148;-2.144;2023-04-24T16:15:45;5.68;;;1.48;;
27365;SDS011;14837;57.148;-2.144;2023-04-24T16:18:12;5.85;;;1.95;;
27365;SDS011;14837;57.148;-2.144;2023-04-24T16:20:38;6.43;;;1.95;;
27365;SDS011;14837;57.148;-2.144;2023-04-24T16:23:05;5.72;;;1.60;;
27365;SDS011;14837;57.148;-2.144;2023-04-24T16:25:31;5.05;;;1.42;;
27365;SDS011;14837;57.148;-2.144;2023-04-24T16:27:58;7.22;;;1.83;;
27365;SDS011;14837;57.148;-2.144;2023-04-24T16:30:25;5.20;;;1.92;;
27365;SDS011;14837;57.148;-2.144;2023-04-24T16:32:51;4.00;;;1.05;;
27365;SDS011;14837;57.148;-2.144;2023-04-24T16:35:18;4.63;;;1.20;;
27365;SDS011;14837;57.148;-2.144;2023-04-24T16:37:45;6.25;;;1.33;;
27365;SDS011;14837;57.148;-2.144;2023-04-24T16:40:11;4.85;;;1.27;;
27365;SDS011;14837;57.148;-2.144;2023-04-24T16:42:38;5.78;;;1.50;;
27365;SDS011;14837;57.148;-2.144;2023-04-24T16:45:05;5.13;;;1.15;;
27365;SDS011;14837;57.148;-2.144;2023-04-24T16:47:32;7.20;;;1.58;;
27365;SDS011;14837;57.148;-2.144;2023-04-24T16:49:58;3.47;;;0.88;;
27365;SDS011;14837;57.148;-2.144;2023-04-24T16:52:25;8.15;;;1.38;;
27365;SDS011;14837;57.148;-2.144;2023-04-24T16:54:51;6.35;;;1.70;;
27365;SDS011;14837;57.148;-2.144;2023-04-24T16:57:18;2.83;;;1.88;;
27365;SDS011;14837;57.148;-2.144;2023-04-24T16:59:44;6.03;;;1.40;;
27365;SDS011;14837;57.148;-2.144;2023-04-24T17:02:11;5.32;;;2.15;;
27365;SDS011;14837;57.148;-2.144;2023-04-24T17:04:37;4.60;;;2.00;;
27365;SDS011;14837;57.148;-2.144;2023-04-24T17:07:04;7.18;;;1.42;;
27365;SDS011;14837;57.148;-2.144;2023-04-24T17:09:31;3.55;;;1.77;;
27365;SDS011;14837;57.148;-2.144;2023-04-24T17:11:57;3.85;;;1.50;;
27365;SDS011;14837;57.148;-2.144;2023-04-24T17:14:24;6.05;;;1.52;;
27365;SDS011;14837;57.148;-2.144;2023-04-24T17:16:51;6.60;;;2.30;;
27365;SDS011;14837;57.148;-2.144;2023-04-24T17:19:18;5.75;;;1.10;;
27365;SDS011;14837;57.148;-2.144;2023-04-24T17:21:45;2.55;;;1.80;;
27365;SDS011;14837;57.148;-2.144;2023-04-24T17:24:11;6.18;;;2.22;;
27365;SDS011;14837;57.148;-2.144;2023-04-24T17:26:38;2.00;;;1.33;;
27365;SDS011;14837;57.148;-2.144;2023-04-24T17:29:04;5.18;;;1.70;;
27365;SDS011;14837;57.148;-2.144;2023-04-24T17:31:31;4.85;;;1.60;;
27365;SDS011;14837;57.148;-2.144;2023-04-24T17:33:57;6.53;;;1.80;;
27365;SDS011;14837;57.148;-2.144;2023-04-24T17:36:24;5.78;;;2.42;;
27365;SDS011;14837;57.148;-2.144;2023-04-24T17:38:51;4.45;;;1.98;;
27365;SDS011;14837;57.148;-2.144;2023-04-24T17:41:18;7.47;;;2.85;;
27365;SDS011;14837;57.148;-2.144;2023-04-24T17:43:44;5.97;;;2.67;;
27365;SDS011;14837;57.148;-2.144;2023-04-24T17:46:11;4.03;;;1.40;;
27365;SDS011;14837;57.148;-2.144;2023-04-24T17:48:38;3.75;;;1.80;;
27365;SDS011;14837;57.148;-2.144;2023-04-24T17:51:05;6.13;;;2.20;;
27365;SDS011;14837;57.148;-2.144;2023-04-24T17:53:31;6.07;;;2.10;;
27365;SDS011;14837;57.148;-2.144;2023-04-24T17:55:59;5.32;;;1.55;;
27365;SDS011;14837;57.148;-2.144;2023-04-24T17:58:28;11.05;;;2.58;;
27365;SDS011;14837;57.148;-2.144;2023-04-24T18:00:54;4.88;;;2.20;;
27365;SDS011;14837;57.148;-2.144;2023-04-24T18:03:21;7.38;;;2.15;;
27365;SDS011;14837;57.148;-2.144;2023-04-24T18:05:48;5.15;;;1.88;;
27365;SDS011;14837;57.148;-2.144;2023-04-24T18:08:14;8.65;;;2.90;;
27365;SDS011;14837;57.148;-2.144;2023-04-24T18:10:41;6.93;;;2.35;;
27365;SDS011;14837;57.148;-2.144;2023-04-24T18:13:10;5.22;;;2.20;;
27365;SDS011;14837;57.148;-2.144;2023-04-24T18:15:36;7.60;;;1.90;;
27365;SDS011;14837;57.148;-2.144;2023-04-24T18:18:07;2.80;;;1.20;;
27365;SDS011;14837;57.148;-2.144;2023-04-24T18:20:34;11.65;;;1.90;;